createdAt,value
2017-12-08T00:10:34.835Z,-0.30
2017-12-08T00:26:01.922Z,-0.20
2017-12-08T00:28:28.968Z,-0.10
2017-12-08T00:30:56.681Z,0.00
2017-12-08T00:33:24.647Z,0.00
2017-12-08T00:35:53.130Z,0.00
2017-12-08T00:38:20.061Z,0.10
2017-12-08T00:40:48.298Z,0.30
2017-12-08T00:43:15.008Z,0.20
2017-12-08T00:45:43.032Z,0.40
2017-12-08T00:48:09.321Z,0.40
2017-12-08T00:50:36.577Z,0.40
2017-12-08T00:53:04.364Z,0.50
2017-12-08T00:55:38.449Z,0.50
2017-12-08T00:58:05.741Z,0.60
2017-12-08T01:00:32.244Z,0.70
2017-12-08T01:03:00.419Z,0.30
2017-12-08T01:05:27.441Z,0.30
2017-12-08T01:07:54.221Z,0.40
2017-12-08T01:10:20.505Z,0.50
2017-12-08T01:12:47.138Z,0.60
2017-12-08T01:15:13.454Z,0.60
2017-12-08T01:17:41.268Z,0.80
2017-12-08T01:20:09.792Z,0.80
2017-12-08T01:22:37.364Z,0.90
2017-12-08T01:25:04.942Z,0.90
2017-12-08T01:27:32.693Z,1.00
2017-12-08T01:29:59.485Z,1.00
2017-12-08T01:32:26.451Z,1.00
2017-12-08T01:34:53.490Z,1.10
2017-12-08T01:37:20.984Z,1.10
2017-12-08T01:39:47.240Z,1.10
2017-12-08T01:42:14.698Z,1.10
2017-12-08T01:44:41.281Z,0.90
2017-12-08T01:47:08.363Z,1.00
2017-12-08T01:49:35.871Z,1.00
2017-12-08T01:52:02.787Z,1.00
2017-12-08T01:54:30.932Z,1.20
2017-12-08T01:56:57.205Z,1.10
2017-12-08T01:59:24.296Z,1.20
2017-12-08T02:01:51.955Z,1.20
2017-12-08T02:04:19.000Z,1.20
2017-12-08T02:06:46.697Z,1.20
2017-12-08T02:09:14.194Z,1.20
2017-12-08T02:11:40.765Z,1.40
2017-12-08T02:14:07.787Z,1.40
2017-12-08T02:16:34.579Z,1.40
2017-12-08T02:19:01.900Z,1.40
2017-12-08T02:21:29.589Z,1.40
2017-12-08T02:23:56.996Z,1.40
2017-12-08T02:26:24.132Z,1.40
2017-12-08T02:28:51.073Z,1.30
2017-12-08T02:31:18.498Z,1.40
2017-12-08T02:33:45.925Z,1.40
2017-12-08T02:36:13.325Z,1.30
2017-12-08T02:38:39.803Z,1.20
2017-12-08T02:41:07.930Z,1.30
2017-12-08T02:43:34.917Z,1.30
2017-12-08T02:46:02.599Z,1.50
2017-12-08T02:48:29.702Z,1.60
2017-12-08T02:50:57.276Z,1.70
2017-12-08T02:53:23.951Z,1.70
2017-12-08T02:55:50.851Z,1.70
2017-12-08T02:58:18.116Z,1.70
2017-12-08T03:00:44.415Z,1.80
2017-12-08T03:03:10.833Z,1.80
2017-12-08T03:05:37.933Z,1.90
2017-12-08T03:08:12.755Z,1.90
2017-12-08T03:10:39.626Z,1.90
2017-12-08T03:13:06.119Z,2.00
2017-12-08T03:15:33.085Z,1.90
2017-12-08T03:18:06.979Z,1.90
2017-12-08T03:20:33.317Z,1.90
2017-12-08T03:23:00.578Z,2.00
2017-12-08T03:25:28.728Z,2.10
2017-12-08T03:27:55.037Z,2.10
2017-12-08T03:30:21.467Z,2.10
2017-12-08T03:32:49.463Z,2.10
2017-12-08T03:35:17.675Z,2.10
2017-12-08T03:37:43.954Z,2.20
2017-12-08T03:40:10.822Z,2.30
2017-12-08T03:42:37.923Z,2.30
2017-12-08T03:45:05.652Z,2.30
2017-12-08T03:47:32.841Z,2.30
2017-12-08T03:49:59.193Z,2.40
2017-12-08T03:52:25.473Z,2.50
2017-12-08T03:54:52.196Z,2.40
2017-12-08T03:57:20.488Z,2.50
2017-12-08T03:59:48.539Z,2.30
2017-12-08T04:02:15.590Z,2.40
2017-12-08T04:04:43.869Z,2.50
2017-12-08T04:07:12.165Z,2.50
2017-12-08T04:09:40.686Z,2.50
2017-12-08T04:12:06.956Z,2.50
2017-12-08T04:14:34.168Z,2.50
2017-12-08T04:17:00.446Z,2.50
2017-12-08T04:19:26.712Z,2.50
2017-12-08T04:21:53.182Z,2.50
2017-12-08T04:24:20.423Z,2.40
2017-12-08T04:26:48.350Z,2.50
2017-12-08T04:29:14.636Z,2.40
2017-12-08T04:31:41.631Z,2.50
2017-12-08T04:34:09.027Z,2.40
2017-12-08T04:36:37.316Z,2.40
2017-12-08T04:39:04.408Z,2.40
2017-12-08T04:41:31.169Z,2.40
2017-12-08T04:43:59.221Z,2.50
2017-12-08T04:46:26.960Z,2.40
2017-12-08T04:48:53.249Z,2.40
2017-12-08T04:51:20.124Z,2.50
2017-12-08T04:53:47.386Z,2.50
2017-12-08T04:56:15.190Z,2.50
2017-12-08T04:58:42.445Z,2.50
2017-12-08T05:01:10.424Z,2.60
2017-12-08T05:03:38.153Z,2.60
2017-12-08T05:06:04.970Z,2.60
2017-12-08T05:08:31.270Z,2.60
2017-12-08T05:10:58.273Z,2.60
2017-12-08T05:13:24.556Z,2.60
2017-12-08T05:15:51.893Z,2.60
2017-12-08T05:18:19.462Z,2.70
2017-12-08T05:20:47.525Z,2.70
2017-12-08T05:23:14.547Z,2.70
2017-12-08T05:25:41.583Z,2.70
2017-12-08T05:28:09.174Z,2.70
2017-12-08T05:30:36.171Z,2.70
2017-12-08T05:33:03.525Z,2.70
2017-12-08T05:35:30.351Z,2.70
2017-12-08T05:37:56.642Z,2.80
2017-12-08T05:40:24.599Z,2.80
2017-12-08T05:42:52.625Z,2.70
2017-12-08T05:45:18.959Z,2.80
2017-12-08T05:47:45.833Z,2.70
2017-12-08T05:50:13.131Z,2.80
2017-12-08T05:52:40.897Z,2.70
2017-12-08T05:55:08.686Z,2.70
2017-12-08T05:57:35.788Z,2.70
2017-12-08T06:00:02.742Z,2.70
2017-12-08T06:02:30.514Z,2.80
2017-12-08T06:04:57.674Z,2.80
2017-12-08T06:07:24.062Z,2.80
2017-12-08T06:09:50.353Z,2.90
2017-12-08T06:12:16.822Z,2.90
2017-12-08T06:14:45.120Z,2.90
2017-12-08T06:17:11.376Z,2.90
2017-12-08T06:19:37.650Z,2.90
2017-12-08T06:22:04.642Z,2.90
2017-12-08T06:24:32.256Z,2.90
2017-12-08T06:27:00.005Z,3.00
2017-12-08T06:29:26.969Z,3.00
2017-12-08T06:31:54.032Z,3.10
2017-12-08T06:34:21.183Z,3.10
2017-12-08T06:36:48.195Z,3.20
2017-12-08T06:39:14.431Z,3.20
2017-12-08T06:41:40.686Z,3.20
2017-12-08T06:44:06.954Z,3.10
2017-12-08T06:46:34.421Z,3.10
2017-12-08T06:49:01.338Z,3.20
2017-12-08T06:51:28.459Z,3.20
2017-12-08T06:53:55.318Z,3.10
2017-12-08T06:56:22.833Z,3.10
2017-12-08T06:58:49.966Z,3.10
2017-12-08T07:01:17.968Z,3.10
2017-12-08T07:03:46.322Z,3.10
2017-12-08T07:06:12.659Z,3.10
2017-12-08T07:08:38.956Z,3.10
2017-12-08T07:11:05.283Z,3.10
2017-12-08T07:13:32.126Z,3.10
2017-12-08T07:15:58.969Z,3.10
2017-12-08T07:18:25.839Z,3.20
2017-12-08T07:20:53.226Z,3.30
2017-12-08T07:23:19.643Z,3.30
2017-12-08T07:25:47.309Z,3.30
2017-12-08T07:28:14.552Z,3.30
2017-12-08T07:30:40.843Z,3.30
2017-12-08T07:33:07.639Z,3.30
2017-12-08T07:35:34.482Z,3.40
2017-12-08T07:38:01.512Z,3.40
2017-12-08T07:40:27.786Z,3.40
2017-12-08T07:42:55.783Z,3.50
2017-12-08T07:45:22.100Z,3.50
2017-12-08T07:47:48.391Z,3.50
2017-12-08T07:50:15.634Z,3.30
2017-12-08T07:52:41.902Z,3.30
2017-12-08T08:08:08.690Z,3.20
2017-12-08T08:10:35.946Z,3.50
2017-12-08T08:13:03.152Z,3.50
2017-12-08T08:15:29.514Z,3.70
2017-12-08T08:17:55.789Z,3.90
2017-12-08T08:20:22.059Z,4.10
2017-12-08T08:22:48.406Z,4.20
2017-12-08T08:25:16.170Z,4.20
2017-12-08T08:27:44.118Z,4.10
2017-12-08T08:30:11.194Z,4.10
2017-12-08T08:32:37.499Z,4.10
2017-12-08T08:35:05.260Z,4.10
2017-12-08T08:37:32.947Z,4.10
2017-12-08T08:40:00.417Z,4.10
2017-12-08T08:42:27.364Z,4.10
2017-12-08T08:44:54.601Z,4.00
2017-12-08T08:47:22.593Z,4.00
2017-12-08T08:49:51.186Z,4.00
2017-12-08T08:52:18.885Z,4.10
2017-12-08T08:54:45.221Z,4.00
2017-12-08T08:57:12.813Z,4.10
2017-12-08T08:59:40.076Z,4.10
2017-12-08T09:02:07.871Z,4.20
2017-12-08T09:04:34.835Z,4.10
2017-12-08T09:07:01.918Z,4.10
2017-12-08T09:09:28.233Z,4.10
2017-12-08T09:11:54.831Z,4.10
2017-12-08T09:14:21.937Z,4.20
2017-12-08T09:16:49.423Z,4.20
2017-12-08T09:19:16.641Z,4.20
2017-12-08T09:21:43.072Z,4.30
2017-12-08T09:24:10.779Z,4.30
2017-12-08T09:26:38.516Z,4.30
2017-12-08T09:29:06.559Z,4.40
2017-12-08T09:31:32.823Z,4.40
2017-12-08T09:34:00.284Z,4.40
2017-12-08T09:36:26.626Z,4.40
2017-12-08T09:38:53.888Z,4.40
2017-12-08T09:41:20.140Z,4.40
2017-12-08T09:43:47.382Z,4.40
2017-12-08T09:46:15.767Z,4.40
2017-12-08T09:48:42.868Z,4.50
2017-12-08T09:51:10.096Z,4.50
2017-12-08T09:53:37.387Z,4.50
2017-12-08T09:56:03.884Z,4.60
2017-12-08T09:58:30.902Z,4.60
2017-12-08T10:00:58.151Z,4.60
2017-12-08T10:03:24.438Z,4.70
2017-12-08T10:05:51.457Z,4.80
2017-12-08T10:08:17.946Z,4.80
2017-12-08T10:10:45.437Z,4.80
2017-12-08T10:13:13.165Z,4.80
2017-12-08T10:15:39.456Z,4.80
2017-12-08T10:18:06.627Z,4.90
2017-12-08T10:20:33.765Z,4.80
2017-12-08T10:23:01.755Z,4.90
2017-12-08T10:25:28.027Z,4.90
2017-12-08T10:27:55.788Z,4.90
2017-12-08T10:30:22.781Z,4.90
2017-12-08T10:32:49.035Z,4.90
2017-12-08T10:35:17.342Z,4.80
2017-12-08T10:37:44.638Z,4.90
2017-12-08T10:40:12.851Z,4.80
2017-12-08T10:42:39.640Z,4.80
2017-12-08T10:45:06.994Z,4.70
2017-12-08T10:47:34.726Z,4.70
2017-12-08T10:50:01.791Z,4.60
2017-12-08T10:52:29.323Z,4.70
2017-12-08T10:54:57.328Z,4.70
2017-12-08T10:57:25.026Z,4.70
2017-12-08T10:59:51.754Z,4.70
2017-12-08T11:02:19.005Z,4.70
2017-12-08T11:04:46.098Z,4.70
2017-12-08T11:07:12.372Z,4.70
2017-12-08T11:09:39.049Z,4.70
2017-12-08T11:12:07.201Z,4.60
2017-12-08T11:14:34.900Z,4.60
2017-12-08T11:17:02.020Z,4.70
2017-12-08T11:19:30.072Z,4.60
2017-12-08T11:21:57.314Z,4.70
2017-12-08T11:24:24.443Z,4.70
2017-12-08T11:26:50.716Z,4.70
2017-12-08T11:29:17.564Z,4.70
2017-12-08T11:31:44.857Z,4.70
2017-12-08T11:34:11.111Z,4.80
2017-12-08T11:36:38.361Z,4.80
2017-12-08T11:39:06.082Z,4.90
2017-12-08T11:41:32.366Z,4.90
2017-12-08T11:43:59.643Z,4.90
2017-12-08T11:46:26.883Z,4.80
2017-12-08T11:48:53.200Z,4.90
2017-12-08T11:51:20.350Z,4.80
2017-12-08T11:53:47.710Z,4.80
2017-12-08T11:56:13.961Z,4.70
2017-12-08T11:58:40.342Z,4.80
2017-12-08T12:01:07.910Z,4.80
2017-12-08T12:03:35.209Z,4.80
2017-12-08T12:06:02.444Z,4.80
2017-12-08T12:08:29.541Z,4.80
2017-12-08T12:10:56.902Z,4.80
2017-12-08T12:13:24.025Z,4.80
2017-12-08T12:15:50.827Z,4.80
2017-12-08T12:18:18.077Z,4.80
2017-12-08T12:20:44.388Z,4.80
2017-12-08T12:23:11.825Z,4.80
2017-12-08T12:25:40.205Z,4.80
2017-12-08T12:28:08.961Z,4.90
2017-12-08T12:30:37.082Z,5.00
2017-12-08T12:33:04.680Z,4.90
2017-12-08T12:35:31.433Z,4.90
2017-12-08T12:37:58.511Z,4.80
2017-12-08T12:40:25.484Z,4.70
2017-12-08T12:42:51.921Z,4.70
2017-12-08T12:45:19.391Z,4.70
2017-12-08T12:47:45.847Z,4.60
2017-12-08T12:50:12.687Z,4.50
2017-12-08T12:52:40.917Z,4.50
2017-12-08T12:55:07.690Z,4.40
2017-12-08T12:57:35.565Z,4.50
2017-12-08T13:00:03.110Z,5.00
2017-12-08T13:02:30.810Z,5.40
2017-12-08T13:04:57.190Z,5.40
2017-12-08T13:07:23.552Z,5.70
2017-12-08T13:09:50.799Z,5.80
2017-12-08T13:12:17.562Z,5.70
2017-12-08T13:14:44.610Z,5.40
2017-12-08T13:17:11.073Z,5.40
2017-12-08T13:19:38.878Z,5.20
2017-12-08T13:22:06.246Z,5.20
2017-12-08T13:24:32.779Z,5.20
2017-12-08T13:26:59.979Z,5.10
2017-12-08T13:29:27.563Z,5.10
2017-12-08T13:31:54.284Z,5.10
2017-12-08T13:34:21.654Z,5.00
2017-12-08T13:36:48.473Z,5.00
2017-12-08T13:39:15.793Z,4.90
2017-12-08T13:41:42.971Z,4.90
2017-12-08T13:44:09.825Z,4.90
2017-12-08T13:46:38.665Z,4.90
2017-12-08T13:49:05.411Z,4.90
2017-12-08T13:51:32.061Z,4.90
2017-12-08T13:54:11.856Z,4.80
2017-12-08T13:56:52.385Z,4.80
2017-12-08T13:59:19.518Z,4.70
2017-12-08T14:01:45.744Z,4.60
2017-12-08T14:04:12.487Z,4.70
2017-12-08T14:06:38.741Z,4.70
2017-12-08T14:09:06.014Z,4.60
2017-12-08T14:11:33.559Z,4.60
2017-12-08T14:14:01.312Z,4.70
2017-12-08T14:16:29.569Z,4.70
2017-12-08T14:18:56.088Z,4.60
2017-12-08T14:21:23.652Z,4.70
2017-12-08T14:23:49.867Z,4.70
2017-12-08T14:26:17.011Z,4.70
2017-12-08T14:28:43.545Z,4.60
2017-12-08T14:31:10.555Z,4.60
2017-12-08T14:33:38.089Z,4.60
2017-12-08T14:36:04.281Z,4.60
2017-12-08T14:38:31.147Z,4.50
2017-12-08T14:40:57.855Z,4.50
2017-12-08T14:43:24.870Z,4.40
2017-12-08T14:45:51.497Z,4.40
2017-12-08T14:48:18.635Z,4.40
2017-12-08T14:50:46.018Z,4.40
2017-12-08T14:53:12.535Z,4.50
2017-12-08T14:55:39.468Z,4.40
2017-12-08T14:58:06.382Z,4.40
2017-12-08T15:00:33.442Z,4.40
2017-12-08T15:02:59.820Z,4.40
2017-12-08T15:05:26.730Z,4.40
2017-12-08T15:07:52.966Z,4.40
2017-12-08T15:10:20.235Z,4.20
2017-12-08T15:12:47.292Z,4.20
2017-12-08T15:15:14.336Z,4.20
2017-12-08T15:17:41.211Z,4.30
2017-12-08T15:20:08.226Z,4.20
2017-12-08T15:22:34.484Z,4.20
2017-12-08T15:25:00.752Z,4.20
2017-12-08T15:27:27.082Z,4.20
2017-12-08T15:29:53.552Z,4.20
2017-12-08T15:32:21.145Z,4.00
2017-12-08T15:34:47.456Z,4.00
2017-12-08T15:37:14.282Z,4.00
2017-12-08T15:39:41.024Z,4.00
2017-12-08T15:42:08.069Z,4.00
2017-12-08T15:44:34.962Z,4.00
2017-12-08T15:47:01.363Z,3.90
2017-12-08T15:49:28.240Z,3.80
2017-12-08T15:51:55.006Z,3.70
2017-12-08T15:54:22.498Z,3.70
2017-12-08T15:56:49.744Z,3.70
2017-12-08T15:59:16.483Z,3.70
2017-12-08T16:01:42.726Z,3.70
2017-12-08T16:04:09.466Z,3.70
2017-12-08T16:06:36.262Z,3.80
2017-12-08T16:09:03.025Z,3.80
2017-12-08T16:11:29.308Z,3.80
2017-12-08T16:13:55.579Z,3.80
2017-12-08T16:16:22.190Z,3.80
2017-12-08T16:18:48.482Z,3.70
2017-12-08T16:21:15.860Z,3.60
2017-12-08T16:23:42.602Z,3.60
2017-12-08T16:26:09.402Z,3.30
2017-12-08T16:28:35.653Z,3.00
2017-12-08T16:31:02.852Z,2.90
2017-12-08T16:33:29.112Z,2.90
2017-12-08T16:35:55.340Z,2.80
2017-12-08T16:38:21.781Z,2.70
2017-12-08T16:40:48.816Z,2.60
2017-12-08T16:43:15.667Z,2.60
2017-12-08T16:45:42.568Z,2.70
2017-12-08T16:48:09.638Z,2.70
2017-12-08T16:50:36.324Z,2.70
2017-12-08T16:53:03.202Z,2.70
2017-12-08T16:55:31.379Z,2.80
2017-12-08T16:57:58.939Z,2.70
2017-12-08T17:00:26.504Z,2.70
2017-12-08T17:02:52.886Z,2.70
2017-12-08T17:05:20.019Z,2.80
2017-12-08T17:07:47.708Z,2.80
2017-12-08T17:10:13.930Z,2.80
2017-12-08T17:12:41.141Z,2.70
2017-12-08T17:15:07.385Z,2.70
2017-12-08T17:17:33.616Z,2.60
2017-12-08T17:20:00.014Z,2.60
2017-12-08T17:22:27.477Z,2.70
2017-12-08T17:24:54.549Z,2.70
2017-12-08T17:27:21.036Z,2.70
2017-12-08T17:29:48.589Z,2.60
2017-12-08T17:32:15.889Z,2.60
2017-12-08T17:34:42.976Z,2.70
2017-12-08T17:37:09.222Z,2.70
2017-12-08T17:39:36.831Z,2.70
2017-12-08T17:42:03.080Z,2.70
2017-12-08T17:44:29.450Z,2.70
2017-12-08T17:46:55.787Z,2.60
2017-12-08T17:49:22.205Z,2.70
2017-12-08T17:51:48.538Z,2.60
2017-12-08T17:54:14.906Z,2.60
2017-12-08T17:56:42.003Z,2.80
2017-12-08T17:59:09.090Z,2.80
2017-12-08T18:01:35.311Z,2.80
2017-12-08T18:04:02.205Z,2.80
2017-12-08T18:06:28.651Z,2.80
2017-12-08T18:08:56.239Z,2.70
2017-12-08T18:11:22.473Z,2.80
2017-12-08T18:13:49.355Z,2.80
2017-12-08T18:16:16.448Z,2.70
2017-12-08T18:18:44.073Z,2.70
2017-12-08T18:21:10.724Z,2.70
2017-12-08T18:23:38.682Z,2.60
2017-12-08T18:26:05.055Z,2.60
2017-12-08T18:28:31.290Z,2.50
2017-12-08T18:30:58.158Z,2.50
2017-12-08T18:33:24.978Z,2.40
2017-12-08T18:35:51.876Z,2.40
2017-12-08T18:38:19.393Z,2.30
2017-12-08T18:40:47.014Z,2.30
2017-12-08T18:43:14.978Z,2.10
2017-12-08T18:45:42.227Z,2.10
2017-12-08T18:48:09.188Z,2.20
2017-12-08T18:50:37.312Z,2.30
2017-12-08T18:53:04.859Z,2.20
2017-12-08T18:55:31.626Z,2.20
2017-12-08T18:57:58.100Z,2.30
2017-12-08T19:00:24.958Z,2.20
2017-12-08T19:12:42.137Z,2.20
2017-12-08T19:15:09.610Z,1.90
2017-12-08T19:17:37.653Z,1.90
2017-12-08T19:20:04.322Z,2.00
2017-12-08T19:22:31.986Z,2.20
2017-12-08T19:24:59.258Z,2.20
2017-12-08T19:27:25.874Z,2.30
2017-12-08T19:29:52.959Z,2.20
2017-12-08T19:32:21.133Z,2.10
2017-12-08T19:34:48.698Z,2.30
2017-12-08T19:37:17.123Z,2.30
2017-12-08T19:39:45.555Z,2.40
2017-12-08T19:42:13.096Z,2.30
2017-12-08T19:44:41.413Z,2.30
2017-12-08T19:47:07.808Z,2.30
2017-12-08T19:49:35.675Z,2.20
2017-12-08T19:52:03.436Z,2.30
2017-12-08T20:04:16.388Z,2.20
2017-12-08T20:06:44.459Z,1.90
2017-12-08T20:09:10.658Z,1.90
2017-12-08T20:11:39.098Z,2.00
2017-12-08T20:14:06.070Z,2.00
2017-12-08T20:16:33.555Z,2.10
2017-12-08T20:19:00.473Z,2.10
2017-12-08T20:21:28.246Z,2.20
2017-12-08T20:23:55.760Z,2.20
2017-12-08T20:26:23.827Z,2.10
2017-12-08T20:28:50.432Z,2.10
2017-12-08T20:31:17.262Z,2.10
2017-12-08T20:33:44.354Z,2.10
2017-12-08T20:36:11.400Z,2.20
2017-12-08T20:38:38.414Z,2.20
2017-12-08T20:41:05.689Z,2.30
2017-12-08T20:43:32.082Z,2.20
2017-12-08T20:45:59.737Z,2.20
2017-12-08T20:48:26.121Z,2.20
2017-12-08T20:50:52.523Z,2.20
2017-12-08T20:53:20.038Z,2.30
2017-12-08T20:55:47.082Z,2.30
2017-12-08T20:58:14.186Z,2.30
2017-12-08T21:00:40.467Z,2.20
2017-12-08T21:03:07.558Z,2.30
2017-12-08T21:05:34.086Z,2.20
2017-12-08T21:08:00.517Z,2.20
2017-12-08T21:10:27.647Z,2.20
2017-12-08T21:12:54.200Z,2.30
2017-12-08T21:15:21.440Z,2.30
2017-12-08T21:17:48.433Z,2.30
2017-12-08T21:20:14.775Z,2.30
2017-12-08T21:22:41.758Z,2.30
2017-12-08T21:25:08.751Z,2.30
2017-12-08T21:27:35.670Z,2.40
2017-12-08T21:30:03.263Z,2.40
2017-12-08T21:32:30.686Z,2.30
2017-12-08T21:34:57.927Z,2.30
2017-12-08T21:37:24.808Z,2.20
2017-12-08T21:39:51.814Z,2.20
2017-12-08T21:42:18.101Z,2.20
2017-12-08T21:44:45.263Z,2.20
2017-12-08T21:47:12.755Z,2.20
2017-12-08T21:49:39.247Z,2.20
2017-12-08T21:52:06.889Z,2.20
2017-12-08T21:54:35.056Z,2.20
2017-12-08T21:57:02.274Z,2.20
2017-12-08T21:59:29.289Z,2.20
2017-12-08T22:01:56.829Z,2.20
2017-12-08T22:04:24.916Z,2.20
2017-12-08T22:06:52.397Z,2.20
2017-12-08T22:09:18.969Z,2.20
2017-12-08T22:11:46.803Z,2.20
2017-12-08T22:14:14.066Z,2.20
2017-12-08T22:16:40.483Z,2.20
2017-12-08T22:19:07.588Z,2.20
2017-12-08T22:21:33.805Z,2.20
2017-12-08T22:24:00.660Z,2.20
2017-12-08T22:26:27.134Z,2.20
2017-12-08T22:28:54.207Z,2.20
2017-12-08T22:31:20.992Z,2.10
2017-12-08T22:33:48.344Z,2.20
2017-12-08T22:36:15.375Z,2.30
2017-12-08T22:38:41.970Z,2.30
2017-12-08T22:41:09.216Z,2.40
2017-12-08T22:43:35.701Z,2.30
2017-12-08T22:46:03.336Z,2.30
2017-12-08T22:48:30.356Z,2.20
2017-12-08T22:50:57.091Z,2.20
2017-12-08T22:53:24.175Z,2.30
2017-12-08T22:55:50.751Z,2.30
2017-12-08T22:58:18.095Z,2.30
2017-12-08T23:00:46.378Z,2.20
2017-12-08T23:03:13.855Z,2.20
2017-12-08T23:05:40.180Z,2.20
2017-12-08T23:08:07.821Z,2.30
2017-12-08T23:10:35.107Z,2.20
2017-12-08T23:13:01.326Z,2.20
2017-12-08T23:15:27.659Z,2.20
2017-12-08T23:17:54.654Z,2.20
2017-12-08T23:20:21.792Z,2.20
2017-12-08T23:22:48.012Z,2.20
2017-12-08T23:25:14.832Z,2.20
2017-12-08T23:27:41.253Z,2.20
2017-12-08T23:30:08.713Z,2.30
2017-12-08T23:32:35.974Z,2.30
2017-12-08T23:35:02.211Z,2.20
2017-12-08T23:37:29.202Z,2.30
2017-12-08T23:39:57.387Z,2.30
2017-12-08T23:42:24.332Z,2.30
2017-12-08T23:44:52.508Z,2.30
2017-12-08T23:47:20.436Z,2.30
2017-12-08T23:49:46.649Z,2.30
2017-12-08T23:52:12.959Z,2.40
2017-12-08T23:54:40.439Z,2.40
2017-12-08T23:57:07.976Z,2.40
2017-12-08T23:59:34.224Z,2.30
